sensor_id;sensor_type;location;lat;lon;timestamp;temperature;humidity
31113;DHT22;17763;48.730;9.136;2024-02-21T00:00:57;6.90;99.90
31113;DHT22;17763;48.730;9.136;2024-02-21T00:03:23;7.10;99.90
31113;DHT22;17763;48.730;9.136;2024-02-21T00:05:48;7.00;99.90
31113;DHT22;17763;48.730;9.136;2024-02-21T00:08:14;7.00;99.90
31113;DHT22;17763;48.730;9.136;2024-02-21T00:10:42;7.00;99.90
31113;DHT22;17763;48.730;9.136;2024-02-21T00:13:08;7.00;99.90
31113;DHT22;17763;48.730;9.136;2024-02-21T00:15:33;7.00;99.90
31113;DHT22;17763;48.730;9.136;2024-02-21T00:18:03;7.00;99.90
31113;DHT22;17763;48.730;9.136;2024-02-21T00:20:32;7.00;99.90
31113;DHT22;17763;48.730;9.136;2024-02-21T00:22:58;7.00;99.90
31113;DHT22;17763;48.730;9.136;2024-02-21T00:25:25;7.00;99.90
31113;DHT22;17763;48.730;9.136;2024-02-21T00:27:51;7.00;99.90
31113;DHT22;17763;48.730;9.136;2024-02-21T00:30:19;7.00;99.90
31113;DHT22;17763;48.730;9.136;2024-02-21T00:32:44;7.00;99.90
31113;DHT22;17763;48.730;9.136;2024-02-21T00:35:15;7.00;99.90
31113;DHT22;17763;48.730;9.136;2024-02-21T00:37:41;7.00;99.90
31113;DHT22;17763;48.730;9.136;2024-02-21T00:40:09;7.10;99.90
31113;DHT22;17763;48.730;9.136;2024-02-21T00:42:36;7.00;99.90
31113;DHT22;17763;48.730;9.136;2024-02-21T00:45:04;7.00;99.90
31113;DHT22;17763;48.730;9.136;2024-02-21T00:47:33;7.00;99.90
31113;DHT22;17763;48.730;9.136;2024-02-21T00:50:01;7.00;99.90
31113;DHT22;17763;48.730;9.136;2024-02-21T00:52:29;7.00;99.90
31113;DHT22;17763;48.730;9.136;2024-02-21T00:54:57;7.00;99.90
31113;DHT22;17763;48.730;9.136;2024-02-21T00:57:23;7.00;99.90
31113;DHT22;17763;48.730;9.136;2024-02-21T00:59:49;7.00;99.90
31113;DHT22;17763;48.730;9.136;2024-02-21T01:02:14;7.00;99.90
31113;DHT22;17763;48.730;9.136;2024-02-21T01:04:40;7.00;99.90
31113;DHT22;17763;48.730;9.136;2024-02-21T01:07:06;7.00;99.90
31113;DHT22;17763;48.730;9.136;2024-02-21T01:09:32;7.00;99.90
31113;DHT22;17763;48.730;9.136;2024-02-21T01:12:00;7.00;99.90
31113;DHT22;17763;48.730;9.136;2024-02-21T01:14:25;7.00;99.90
31113;DHT22;17763;48.730;9.136;2024-02-21T01:16:51;7.00;99.90
31113;DHT22;17763;48.730;9.136;2024-02-21T01:19:19;7.00;99.90
31113;DHT22;17763;48.730;9.136;2024-02-21T01:21:45;7.00;99.90
31113;DHT22;17763;48.730;9.136;2024-02-21T01:24:10;7.00;99.90
31113;DHT22;17763;48.730;9.136;2024-02-21T01:26:36;7.00;99.90
31113;DHT22;17763;48.730;9.136;2024-02-21T01:29:02;7.00;99.90
31113;DHT22;17763;48.730;9.136;2024-02-21T01:31:30;6.90;99.90
31113;DHT22;17763;48.730;9.136;2024-02-21T01:33:56;6.90;99.90
31113;DHT22;17763;48.730;9.136;2024-02-21T01:36:21;6.90;99.90
31113;DHT22;17763;48.730;9.136;2024-02-21T01:38:47;6.80;99.90
31113;DHT22;17763;48.730;9.136;2024-02-21T01:41:13;6.80;99.90
31113;DHT22;17763;48.730;9.136;2024-02-21T01:43:38;6.90;99.90
31113;DHT22;17763;48.730;9.136;2024-02-21T01:46:04;6.80;99.90
31113;DHT22;17763;48.730;9.136;2024-02-21T01:48:30;6.80;99.90
31113;DHT22;17763;48.730;9.136;2024-02-21T01:51:00;6.80;99.90
31113;DHT22;17763;48.730;9.136;2024-02-21T01:53:34;6.80;99.90
31113;DHT22;17763;48.730;9.136;2024-02-21T01:56:04;6.80;99.90
31113;DHT22;17763;48.730;9.136;2024-02-21T01:58:31;6.80;99.90
31113;DHT22;17763;48.730;9.136;2024-02-21T02:01:02;6.80;99.90
31113;DHT22;17763;48.730;9.136;2024-02-21T02:03:28;6.80;99.90
31113;DHT22;17763;48.730;9.136;2024-02-21T02:05:55;6.80;99.90
31113;DHT22;17763;48.730;9.136;2024-02-21T02:08:21;6.80;99.90
31113;DHT22;17763;48.730;9.136;2024-02-21T02:10:50;6.80;99.90
31113;DHT22;17763;48.730;9.136;2024-02-21T02:13:16;6.80;99.90
31113;DHT22;17763;48.730;9.136;2024-02-21T02:15:49;6.80;99.90
31113;DHT22;17763;48.730;9.136;2024-02-21T02:18:16;6.80;99.90
31113;DHT22;17763;48.730;9.136;2024-02-21T02:20:42;6.80;99.90
31113;DHT22;17763;48.730;9.136;2024-02-21T02:23:20;6.80;99.90
31113;DHT22;17763;48.730;9.136;2024-02-21T02:25:46;6.80;99.90
31113;DHT22;17763;48.730;9.136;2024-02-21T02:28:17;6.80;99.90
31113;DHT22;17763;48.730;9.136;2024-02-21T02:30:43;6.80;99.90
31113;DHT22;17763;48.730;9.136;2024-02-21T02:33:09;7.00;99.90
31113;DHT22;17763;48.730;9.136;2024-02-21T02:35:35;6.80;99.90
31113;DHT22;17763;48.730;9.136;2024-02-21T02:38:02;6.80;99.90
31113;DHT22;17763;48.730;9.136;2024-02-21T02:40:28;6.80;99.90
31113;DHT22;17763;48.730;9.136;2024-02-21T02:42:54;6.80;99.90
31113;DHT22;17763;48.730;9.136;2024-02-21T02:45:21;6.80;99.90
31113;DHT22;17763;48.730;9.136;2024-02-21T02:47:54;6.80;99.90
31113;DHT22;17763;48.730;9.136;2024-02-21T02:50:23;6.80;99.90
31113;DHT22;17763;48.730;9.136;2024-02-21T02:52:49;6.80;99.90
31113;DHT22;17763;48.730;9.136;2024-02-21T02:55:17;6.80;99.90
31113;DHT22;17763;48.730;9.136;2024-02-21T02:57:45;6.80;99.90
31113;DHT22;17763;48.730;9.136;2024-02-21T03:00:11;6.80;99.90
31113;DHT22;17763;48.730;9.136;2024-02-21T03:02:38;6.80;99.90
31113;DHT22;17763;48.730;9.136;2024-02-21T03:05:16;6.80;99.90
31113;DHT22;17763;48.730;9.136;2024-02-21T03:07:43;6.80;99.90
31113;DHT22;17763;48.730;9.136;2024-02-21T03:10:11;6.80;99.90
31113;DHT22;17763;48.730;9.136;2024-02-21T03:12:37;6.80;99.90
31113;DHT22;17763;48.730;9.136;2024-02-21T03:15:04;6.80;99.90
31113;DHT22;17763;48.730;9.136;2024-02-21T03:17:30;6.80;99.90
31113;DHT22;17763;48.730;9.136;2024-02-21T03:19:57;6.80;99.90
31113;DHT22;17763;48.730;9.136;2024-02-21T03:22:23;6.80;99.90
31113;DHT22;17763;48.730;9.136;2024-02-21T03:24:53;6.80;99.90
31113;DHT22;17763;48.730;9.136;2024-02-21T03:27:18;6.80;99.90
31113;DHT22;17763;48.730;9.136;2024-02-21T03:29:44;6.70;99.90
31113;DHT22;17763;48.730;9.136;2024-02-21T03:32:10;6.70;99.90
31113;DHT22;17763;48.730;9.136;2024-02-21T03:34:36;6.70;99.90
31113;DHT22;17763;48.730;9.136;2024-02-21T03:37:04;6.70;99.90
31113;DHT22;17763;48.730;9.136;2024-02-21T03:39:33;6.70;99.90
31113;DHT22;17763;48.730;9.136;2024-02-21T03:42:04;6.70;99.90
31113;DHT22;17763;48.730;9.136;2024-02-21T03:44:31;6.70;99.90
31113;DHT22;17763;48.730;9.136;2024-02-21T03:46:57;6.70;99.90
31113;DHT22;17763;48.730;9.136;2024-02-21T03:49:23;6.70;99.90
31113;DHT22;17763;48.730;9.136;2024-02-21T03:51:48;6.80;99.90
31113;DHT22;17763;48.730;9.136;2024-02-21T03:54:14;6.80;99.90
31113;DHT22;17763;48.730;9.136;2024-02-21T03:56:40;6.80;99.90
31113;DHT22;17763;48.730;9.136;2024-02-21T03:59:09;6.80;99.90
31113;DHT22;17763;48.730;9.136;2024-02-21T04:01:35;6.80;99.90
31113;DHT22;17763;48.730;9.136;2024-02-21T04:04:03;6.80;99.90
31113;DHT22;17763;48.730;9.136;2024-02-21T04:06:29;6.70;99.90
31113;DHT22;17763;48.730;9.136;2024-02-21T04:08:55;6.70;99.90
31113;DHT22;17763;48.730;9.136;2024-02-21T04:11:20;6.70;99.90
31113;DHT22;17763;48.730;9.136;2024-02-21T04:13:48;6.70;99.90
31113;DHT22;17763;48.730;9.136;2024-02-21T04:16:18;6.70;99.90
31113;DHT22;17763;48.730;9.136;2024-02-21T04:18:44;6.70;99.90
31113;DHT22;17763;48.730;9.136;2024-02-21T04:21:10;6.70;99.90
31113;DHT22;17763;48.730;9.136;2024-02-21T04:23:35;6.60;99.90
31113;DHT22;17763;48.730;9.136;2024-02-21T04:26:01;6.60;99.90
31113;DHT22;17763;48.730;9.136;2024-02-21T04:28:29;6.60;99.90
31113;DHT22;17763;48.730;9.136;2024-02-21T04:30:55;6.60;99.90
31113;DHT22;17763;48.730;9.136;2024-02-21T04:33:20;6.60;99.90
31113;DHT22;17763;48.730;9.136;2024-02-21T04:35:46;6.60;99.90
31113;DHT22;17763;48.730;9.136;2024-02-21T04:38:13;6.60;99.90
31113;DHT22;17763;48.730;9.136;2024-02-21T04:40:40;6.60;99.90
31113;DHT22;17763;48.730;9.136;2024-02-21T04:43:05;6.50;99.90
31113;DHT22;17763;48.730;9.136;2024-02-21T04:45:34;6.50;99.90
31113;DHT22;17763;48.730;9.136;2024-02-21T04:48:02;6.50;99.90
31113;DHT22;17763;48.730;9.136;2024-02-21T04:50:28;6.50;99.90
31113;DHT22;17763;48.730;9.136;2024-02-21T04:52:53;6.50;99.90
31113;DHT22;17763;48.730;9.136;2024-02-21T04:55:19;6.50;99.90
31113;DHT22;17763;48.730;9.136;2024-02-21T04:57:47;6.50;99.90
31113;DHT22;17763;48.730;9.136;2024-02-21T05:00:15;6.50;99.90
31113;DHT22;17763;48.730;9.136;2024-02-21T05:02:41;6.40;99.90
31113;DHT22;17763;48.730;9.136;2024-02-21T05:05:07;6.40;99.90
31113;DHT22;17763;48.730;9.136;2024-02-21T05:07:37;6.30;99.90
31113;DHT22;17763;48.730;9.136;2024-02-21T05:10:03;6.30;99.90
31113;DHT22;17763;48.730;9.136;2024-02-21T05:12:29;6.30;99.90
31113;DHT22;17763;48.730;9.136;2024-02-21T05:14:55;6.30;99.90
31113;DHT22;17763;48.730;9.136;2024-02-21T05:17:23;6.30;99.90
31113;DHT22;17763;48.730;9.136;2024-02-21T05:19:49;6.30;99.90
31113;DHT22;17763;48.730;9.136;2024-02-21T05:22:15;6.30;99.90
31113;DHT22;17763;48.730;9.136;2024-02-21T05:24:40;6.20;99.90
31113;DHT22;17763;48.730;9.136;2024-02-21T05:27:06;6.20;99.90
31113;DHT22;17763;48.730;9.136;2024-02-21T05:29:34;6.20;99.90
31113;DHT22;17763;48.730;9.136;2024-02-21T05:32:00;6.20;99.90
31113;DHT22;17763;48.730;9.136;2024-02-21T05:34:26;6.30;99.90
31113;DHT22;17763;48.730;9.136;2024-02-21T05:36:52;6.40;99.90
31113;DHT22;17763;48.730;9.136;2024-02-21T05:39:18;6.20;99.90
31113;DHT22;17763;48.730;9.136;2024-02-21T05:41:48;6.20;99.90
31113;DHT22;17763;48.730;9.136;2024-02-21T05:44:14;6.30;99.90
31113;DHT22;17763;48.730;9.136;2024-02-21T05:46:42;6.10;99.90
31113;DHT22;17763;48.730;9.136;2024-02-21T05:49:07;6.20;99.90
31113;DHT22;17763;48.730;9.136;2024-02-21T05:51:34;6.20;99.90
31113;DHT22;17763;48.730;9.136;2024-02-21T05:54:00;6.20;99.90
31113;DHT22;17763;48.730;9.136;2024-02-21T05:56:25;6.20;99.90
31113;DHT22;17763;48.730;9.136;2024-02-21T05:58:54;6.20;99.90
31113;DHT22;17763;48.730;9.136;2024-02-21T06:01:19;6.20;99.90
31113;DHT22;17763;48.730;9.136;2024-02-21T06:03:47;6.10;99.90
31113;DHT22;17763;48.730;9.136;2024-02-21T06:06:13;6.10;99.90
31113;DHT22;17763;48.730;9.136;2024-02-21T06:08:40;6.10;99.90
31113;DHT22;17763;48.730;9.136;2024-02-21T06:11:10;6.10;99.90
31113;DHT22;17763;48.730;9.136;2024-02-21T06:13:38;6.10;99.90
31113;DHT22;17763;48.730;9.136;2024-02-21T06:16:06;6.10;99.90
31113;DHT22;17763;48.730;9.136;2024-02-21T06:18:32;6.10;99.90
31113;DHT22;17763;48.730;9.136;2024-02-21T06:21:00;6.10;99.90
31113;DHT22;17763;48.730;9.136;2024-02-21T06:23:26;6.10;99.90
31113;DHT22;17763;48.730;9.136;2024-02-21T06:25:54;6.10;99.90
31113;DHT22;17763;48.730;9.136;2024-02-21T06:28:19;6.00;99.90
31113;DHT22;17763;48.730;9.136;2024-02-21T06:30:46;6.00;99.90
31113;DHT22;17763;48.730;9.136;2024-02-21T06:33:11;6.00;99.90
31113;DHT22;17763;48.730;9.136;2024-02-21T06:35:37;6.00;99.90
31113;DHT22;17763;48.730;9.136;2024-02-21T06:38:06;6.00;99.90
31113;DHT22;17763;48.730;9.136;2024-02-21T06:40:33;6.00;99.90
31113;DHT22;17763;48.730;9.136;2024-02-21T06:43:06;6.10;99.90
31113;DHT22;17763;48.730;9.136;2024-02-21T06:45:34;6.10;99.90
31113;DHT22;17763;48.730;9.136;2024-02-21T06:48:00;6.10;99.90
31113;DHT22;17763;48.730;9.136;2024-02-21T06:50:26;6.20;99.90
31113;DHT22;17763;48.730;9.136;2024-02-21T06:52:53;6.20;99.90
31113;DHT22;17763;48.730;9.136;2024-02-21T06:55:19;6.20;99.90
31113;DHT22;17763;48.730;9.136;2024-02-21T06:57:45;6.20;99.90
31113;DHT22;17763;48.730;9.136;2024-02-21T07:00:11;6.30;99.90
31113;DHT22;17763;48.730;9.136;2024-02-21T07:02:37;6.40;99.90
31113;DHT22;17763;48.730;9.136;2024-02-21T07:05:03;6.40;99.90
31113;DHT22;17763;48.730;9.136;2024-02-21T07:07:29;6.50;99.90
31113;DHT22;17763;48.730;9.136;2024-02-21T07:09:55;6.60;99.90
31113;DHT22;17763;48.730;9.136;2024-02-21T07:12:23;6.60;99.90
31113;DHT22;17763;48.730;9.136;2024-02-21T07:14:48;6.60;99.90
31113;DHT22;17763;48.730;9.136;2024-02-21T07:17:14;6.60;99.90
31113;DHT22;17763;48.730;9.136;2024-02-21T07:19:40;6.70;99.90
31113;DHT22;17763;48.730;9.136;2024-02-21T07:22:06;6.80;99.90
31113;DHT22;17763;48.730;9.136;2024-02-21T07:24:32;6.90;99.90
31113;DHT22;17763;48.730;9.136;2024-02-21T07:26:58;7.10;99.90
31113;DHT22;17763;48.730;9.136;2024-02-21T07:29:30;7.00;99.90
31113;DHT22;17763;48.730;9.136;2024-02-21T07:31:55;7.20;99.90
31113;DHT22;17763;48.730;9.136;2024-02-21T07:34:21;7.30;99.90
31113;DHT22;17763;48.730;9.136;2024-02-21T07:36:49;7.30;99.90
31113;DHT22;17763;48.730;9.136;2024-02-21T07:39:15;7.40;99.90
31113;DHT22;17763;48.730;9.136;2024-02-21T07:41:41;7.50;99.90
31113;DHT22;17763;48.730;9.136;2024-02-21T07:44:12;7.50;99.90
31113;DHT22;17763;48.730;9.136;2024-02-21T07:46:38;7.60;99.90
31113;DHT22;17763;48.730;9.136;2024-02-21T07:49:04;7.60;99.90
31113;DHT22;17763;48.730;9.136;2024-02-21T07:51:29;7.70;99.90
31113;DHT22;17763;48.730;9.136;2024-02-21T07:53:55;7.80;99.90
31113;DHT22;17763;48.730;9.136;2024-02-21T07:56:21;7.80;99.90
31113;DHT22;17763;48.730;9.136;2024-02-21T07:58:47;7.90;99.90
31113;DHT22;17763;48.730;9.136;2024-02-21T08:01:18;8.00;99.90
31113;DHT22;17763;48.730;9.136;2024-02-21T08:03:46;8.00;99.90
31113;DHT22;17763;48.730;9.136;2024-02-21T08:06:12;8.10;99.90
31113;DHT22;17763;48.730;9.136;2024-02-21T08:08:39;8.20;99.90
31113;DHT22;17763;48.730;9.136;2024-02-21T08:11:05;8.30;99.90
31113;DHT22;17763;48.730;9.136;2024-02-21T08:13:31;8.30;99.90
31113;DHT22;17763;48.730;9.136;2024-02-21T08:15:57;8.50;99.90
31113;DHT22;17763;48.730;9.136;2024-02-21T08:18:23;8.40;99.90
31113;DHT22;17763;48.730;9.136;2024-02-21T08:20:48;8.40;99.90
31113;DHT22;17763;48.730;9.136;2024-02-21T08:23:18;8.50;99.90
31113;DHT22;17763;48.730;9.136;2024-02-21T08:25:44;8.50;99.90
31113;DHT22;17763;48.730;9.136;2024-02-21T08:28:10;8.60;99.90
31113;DHT22;17763;48.730;9.136;2024-02-21T08:30:36;8.60;99.90
31113;DHT22;17763;48.730;9.136;2024-02-21T08:33:04;8.70;99.90
31113;DHT22;17763;48.730;9.136;2024-02-21T08:35:30;8.80;99.90
31113;DHT22;17763;48.730;9.136;2024-02-21T08:37:55;8.90;99.90
31113;DHT22;17763;48.730;9.136;2024-02-21T08:40:21;9.00;99.90
31113;DHT22;17763;48.730;9.136;2024-02-21T08:42:47;9.10;99.90
31113;DHT22;17763;48.730;9.136;2024-02-21T08:45:13;9.10;99.90
31113;DHT22;17763;48.730;9.136;2024-02-21T08:47:42;9.10;99.90
31113;DHT22;17763;48.730;9.136;2024-02-21T08:50:08;9.20;99.90
31113;DHT22;17763;48.730;9.136;2024-02-21T08:52:37;9.30;99.90
31113;DHT22;17763;48.730;9.136;2024-02-21T08:55:03;9.30;99.90
31113;DHT22;17763;48.730;9.136;2024-02-21T08:57:30;9.30;99.90
31113;DHT22;17763;48.730;9.136;2024-02-21T09:00:07;9.30;99.90
31113;DHT22;17763;48.730;9.136;2024-02-21T09:02:41;9.30;99.90
31113;DHT22;17763;48.730;9.136;2024-02-21T09:05:09;9.30;99.90
31113;DHT22;17763;48.730;9.136;2024-02-21T09:07:37;9.30;99.90
31113;DHT22;17763;48.730;9.136;2024-02-21T09:10:04;9.30;99.90
31113;DHT22;17763;48.730;9.136;2024-02-21T09:12:30;9.40;99.90
31113;DHT22;17763;48.730;9.136;2024-02-21T09:14:56;9.40;99.90
31113;DHT22;17763;48.730;9.136;2024-02-21T09:17:22;9.50;99.90
31113;DHT22;17763;48.730;9.136;2024-02-21T09:19:51;9.50;99.90
31113;DHT22;17763;48.730;9.136;2024-02-21T09:22:17;9.60;99.90
31113;DHT22;17763;48.730;9.136;2024-02-21T09:24:43;9.70;99.70
31113;DHT22;17763;48.730;9.136;2024-02-21T09:27:09;9.70;99.60
31113;DHT22;17763;48.730;9.136;2024-02-21T09:29:34;9.70;99.00
31113;DHT22;17763;48.730;9.136;2024-02-21T09:32:00;9.80;98.90
31113;DHT22;17763;48.730;9.136;2024-02-21T09:34:28;9.90;98.60
31113;DHT22;17763;48.730;9.136;2024-02-21T09:36:54;10.00;98.50
31113;DHT22;17763;48.730;9.136;2024-02-21T09:39:23;10.20;98.10
31113;DHT22;17763;48.730;9.136;2024-02-21T09:41:53;10.30;97.70
31113;DHT22;17763;48.730;9.136;2024-02-21T09:44:21;10.40;97.10
31113;DHT22;17763;48.730;9.136;2024-02-21T09:47:02;10.50;96.70
31113;DHT22;17763;48.730;9.136;2024-02-21T09:49:32;10.60;96.20
31113;DHT22;17763;48.730;9.136;2024-02-21T09:52:00;10.60;95.80
31113;DHT22;17763;48.730;9.136;2024-02-21T09:54:29;10.70;95.70
31113;DHT22;17763;48.730;9.136;2024-02-21T09:56:56;10.90;95.50
31113;DHT22;17763;48.730;9.136;2024-02-21T09:59:24;11.00;94.80
31113;DHT22;17763;48.730;9.136;2024-02-21T10:01:50;11.00;94.60
31113;DHT22;17763;48.730;9.136;2024-02-21T10:04:16;11.10;94.70
31113;DHT22;17763;48.730;9.136;2024-02-21T10:06:44;11.20;94.40
31113;DHT22;17763;48.730;9.136;2024-02-21T10:09:21;11.20;93.40
31113;DHT22;17763;48.730;9.136;2024-02-21T10:11:48;11.30;93.20
31113;DHT22;17763;48.730;9.136;2024-02-21T10:14:15;11.30;92.80
31113;DHT22;17763;48.730;9.136;2024-02-21T10:16:41;11.40;92.40
31113;DHT22;17763;48.730;9.136;2024-02-21T10:19:16;11.50;91.80
31113;DHT22;17763;48.730;9.136;2024-02-21T10:21:42;11.50;91.40
31113;DHT22;17763;48.730;9.136;2024-02-21T10:24:08;11.50;91.00
31113;DHT22;17763;48.730;9.136;2024-02-21T10:26:33;11.50;90.40
31113;DHT22;17763;48.730;9.136;2024-02-21T10:29:01;11.60;90.40
31113;DHT22;17763;48.730;9.136;2024-02-21T10:31:28;11.60;90.40
31113;DHT22;17763;48.730;9.136;2024-02-21T10:33:58;11.60;89.30
31113;DHT22;17763;48.730;9.136;2024-02-21T10:36:24;11.70;89.00
31113;DHT22;17763;48.730;9.136;2024-02-21T10:38:53;11.70;89.60
31113;DHT22;17763;48.730;9.136;2024-02-21T10:41:20;11.70;88.60
31113;DHT22;17763;48.730;9.136;2024-02-21T10:43:53;11.70;88.80
31113;DHT22;17763;48.730;9.136;2024-02-21T10:46:21;11.80;89.00
31113;DHT22;17763;48.730;9.136;2024-02-21T10:48:47;11.80;88.20
31113;DHT22;17763;48.730;9.136;2024-02-21T10:51:17;11.90;88.20
31113;DHT22;17763;48.730;9.136;2024-02-21T10:58:49;12.00;86.20
31113;DHT22;17763;48.730;9.136;2024-02-21T11:01:18;12.00;85.70
31113;DHT22;17763;48.730;9.136;2024-02-21T11:03:45;12.10;85.50
31113;DHT22;17763;48.730;9.136;2024-02-21T11:06:12;12.20;85.30
31113;DHT22;17763;48.730;9.136;2024-02-21T11:08:39;12.20;85.30
31113;DHT22;17763;48.730;9.136;2024-02-21T11:11:05;12.20;85.40
31113;DHT22;17763;48.730;9.136;2024-02-21T11:13:32;12.30;85.60
31113;DHT22;17763;48.730;9.136;2024-02-21T11:16:08;12.30;85.40
31113;DHT22;17763;48.730;9.136;2024-02-21T11:18:35;12.40;84.00
31113;DHT22;17763;48.730;9.136;2024-02-21T11:21:01;12.40;83.30
31113;DHT22;17763;48.730;9.136;2024-02-21T11:23:30;12.50;82.70
31113;DHT22;17763;48.730;9.136;2024-02-21T11:26:09;12.50;81.90
31113;DHT22;17763;48.730;9.136;2024-02-21T11:28:36;12.50;80.80
31113;DHT22;17763;48.730;9.136;2024-02-21T11:31:13;12.60;79.80
31113;DHT22;17763;48.730;9.136;2024-02-21T11:33:42;12.70;79.00
31113;DHT22;17763;48.730;9.136;2024-02-21T11:36:09;12.60;78.40
31113;DHT22;17763;48.730;9.136;2024-02-21T11:38:37;12.70;77.00
31113;DHT22;17763;48.730;9.136;2024-02-21T11:41:11;12.70;76.10
31113;DHT22;17763;48.730;9.136;2024-02-21T11:43:39;12.80;75.90
31113;DHT22;17763;48.730;9.136;2024-02-21T11:46:07;12.70;73.70
31113;DHT22;17763;48.730;9.136;2024-02-21T11:48:32;12.70;74.10
31113;DHT22;17763;48.730;9.136;2024-02-21T11:50:58;12.80;74.30
31113;DHT22;17763;48.730;9.136;2024-02-21T11:53:26;12.80;74.00
31113;DHT22;17763;48.730;9.136;2024-02-21T11:55:56;12.80;74.10
31113;DHT22;17763;48.730;9.136;2024-02-21T11:58:22;12.80;73.40
31113;DHT22;17763;48.730;9.136;2024-02-21T12:00:48;12.80;73.30
31113;DHT22;17763;48.730;9.136;2024-02-21T12:03:14;12.80;72.70
31113;DHT22;17763;48.730;9.136;2024-02-21T12:05:43;12.80;72.90
31113;DHT22;17763;48.730;9.136;2024-02-21T12:08:08;12.90;72.50
31113;DHT22;17763;48.730;9.136;2024-02-21T12:10:35;12.90;71.70
31113;DHT22;17763;48.730;9.136;2024-02-21T12:13:10;13.00;71.50
31113;DHT22;17763;48.730;9.136;2024-02-21T12:15:39;13.00;71.00
31113;DHT22;17763;48.730;9.136;2024-02-21T12:18:05;13.10;69.70
31113;DHT22;17763;48.730;9.136;2024-02-21T12:20:31;13.00;67.70
31113;DHT22;17763;48.730;9.136;2024-02-21T12:23:01;13.00;67.40
31113;DHT22;17763;48.730;9.136;2024-02-21T12:25:28;13.00;67.50
31113;DHT22;17763;48.730;9.136;2024-02-21T12:27:54;13.10;67.40
31113;DHT22;17763;48.730;9.136;2024-02-21T12:30:24;13.10;66.70
31113;DHT22;17763;48.730;9.136;2024-02-21T12:32:49;13.10;65.50
31113;DHT22;17763;48.730;9.136;2024-02-21T12:35:17;13.20;65.50
31113;DHT22;17763;48.730;9.136;2024-02-21T12:37:43;13.10;64.20
31113;DHT22;17763;48.730;9.136;2024-02-21T12:40:11;13.00;64.50
31113;DHT22;17763;48.730;9.136;2024-02-21T12:42:38;13.00;65.30
31113;DHT22;17763;48.730;9.136;2024-02-21T12:45:05;13.10;65.80
31113;DHT22;17763;48.730;9.136;2024-02-21T12:47:30;13.10;66.10
31113;DHT22;17763;48.730;9.136;2024-02-21T12:49:56;13.20;66.90
31113;DHT22;17763;48.730;9.136;2024-02-21T12:52:22;13.30;66.90
31113;DHT22;17763;48.730;9.136;2024-02-21T12:54:50;13.30;66.50
31113;DHT22;17763;48.730;9.136;2024-02-21T12:57:17;13.40;65.90
31113;DHT22;17763;48.730;9.136;2024-02-21T12:59:42;13.40;65.10
31113;DHT22;17763;48.730;9.136;2024-02-21T13:02:08;13.50;65.10
31113;DHT22;17763;48.730;9.136;2024-02-21T13:04:34;13.40;65.30
31113;DHT22;17763;48.730;9.136;2024-02-21T13:07:00;13.40;65.10
31113;DHT22;17763;48.730;9.136;2024-02-21T13:09:25;13.50;64.80
31113;DHT22;17763;48.730;9.136;2024-02-21T13:11:53;13.50;64.30
31113;DHT22;17763;48.730;9.136;2024-02-21T13:14:19;13.60;63.90
31113;DHT22;17763;48.730;9.136;2024-02-21T13:16:45;13.60;63.70
31113;DHT22;17763;48.730;9.136;2024-02-21T13:19:11;13.60;63.30
31113;DHT22;17763;48.730;9.136;2024-02-21T13:21:36;13.60;62.50
31113;DHT22;17763;48.730;9.136;2024-02-21T13:24:02;13.70;62.80
31113;DHT22;17763;48.730;9.136;2024-02-21T13:26:28;13.70;62.50
31113;DHT22;17763;48.730;9.136;2024-02-21T13:28:55;13.70;62.20
31113;DHT22;17763;48.730;9.136;2024-02-21T13:31:21;13.60;60.90
31113;DHT22;17763;48.730;9.136;2024-02-21T13:33:46;13.70;61.30
31113;DHT22;17763;48.730;9.136;2024-02-21T13:36:12;13.70;61.60
31113;DHT22;17763;48.730;9.136;2024-02-21T13:38:38;13.70;62.30
31113;DHT22;17763;48.730;9.136;2024-02-21T13:41:05;13.70;62.40
31113;DHT22;17763;48.730;9.136;2024-02-21T13:43:33;13.70;62.40
31113;DHT22;17763;48.730;9.136;2024-02-21T13:46:00;13.70;61.50
31113;DHT22;17763;48.730;9.136;2024-02-21T13:48:28;13.60;61.70
31113;DHT22;17763;48.730;9.136;2024-02-21T13:50:55;13.70;62.40
31113;DHT22;17763;48.730;9.136;2024-02-21T13:53:21;13.70;61.90
31113;DHT22;17763;48.730;9.136;2024-02-21T13:55:49;13.80;61.40
31113;DHT22;17763;48.730;9.136;2024-02-21T13:58:16;13.70;61.20
31113;DHT22;17763;48.730;9.136;2024-02-21T14:00:42;13.60;60.90
31113;DHT22;17763;48.730;9.136;2024-02-21T14:03:11;13.60;60.90
31113;DHT22;17763;48.730;9.136;2024-02-21T14:05:37;13.60;61.10
31113;DHT22;17763;48.730;9.136;2024-02-21T14:08:03;13.60;60.90
31113;DHT22;17763;48.730;9.136;2024-02-21T14:10:28;13.50;61.60
31113;DHT22;17763;48.730;9.136;2024-02-21T14:12:54;13.50;61.10
31113;DHT22;17763;48.730;9.136;2024-02-21T14:15:20;13.50;60.90
31113;DHT22;17763;48.730;9.136;2024-02-21T14:17:46;13.50;61.20
31113;DHT22;17763;48.730;9.136;2024-02-21T14:20:12;13.50;61.30
31113;DHT22;17763;48.730;9.136;2024-02-21T14:22:41;13.40;61.40
31113;DHT22;17763;48.730;9.136;2024-02-21T14:25:07;13.40;61.50
31113;DHT22;17763;48.730;9.136;2024-02-21T14:27:33;13.40;62.70
31113;DHT22;17763;48.730;9.136;2024-02-21T14:29:58;13.50;62.60
31113;DHT22;17763;48.730;9.136;2024-02-21T14:32:24;13.50;61.70
31113;DHT22;17763;48.730;9.136;2024-02-21T14:34:50;13.50;62.00
31113;DHT22;17763;48.730;9.136;2024-02-21T14:37:16;13.50;62.10
31113;DHT22;17763;48.730;9.136;2024-02-21T14:39:42;13.50;61.80
31113;DHT22;17763;48.730;9.136;2024-02-21T14:42:08;13.50;61.20
31113;DHT22;17763;48.730;9.136;2024-02-21T14:44:35;13.50;60.90
31113;DHT22;17763;48.730;9.136;2024-02-21T14:47:02;13.50;61.00
31113;DHT22;17763;48.730;9.136;2024-02-21T14:49:29;13.50;60.80
31113;DHT22;17763;48.730;9.136;2024-02-21T14:51:55;13.50;60.90
31113;DHT22;17763;48.730;9.136;2024-02-21T14:54:20;13.50;60.90
31113;DHT22;17763;48.730;9.136;2024-02-21T14:56:46;13.50;60.80
31113;DHT22;17763;48.730;9.136;2024-02-21T14:59:12;13.40;60.80
31113;DHT22;17763;48.730;9.136;2024-02-21T15:01:38;13.40;60.40
31113;DHT22;17763;48.730;9.136;2024-02-21T15:04:05;13.30;60.40
31113;DHT22;17763;48.730;9.136;2024-02-21T15:06:31;13.30;60.70
31113;DHT22;17763;48.730;9.136;2024-02-21T15:09:03;13.20;61.20
31113;DHT22;17763;48.730;9.136;2024-02-21T15:11:31;13.20;62.10
31113;DHT22;17763;48.730;9.136;2024-02-21T15:13:57;13.10;62.90
31113;DHT22;17763;48.730;9.136;2024-02-21T15:16:23;13.10;63.50
31113;DHT22;17763;48.730;9.136;2024-02-21T15:18:49;13.10;64.10
31113;DHT22;17763;48.730;9.136;2024-02-21T15:21:14;13.00;64.60
31113;DHT22;17763;48.730;9.136;2024-02-21T15:23:41;13.00;65.00
31113;DHT22;17763;48.730;9.136;2024-02-21T15:26:07;13.00;65.70
31113;DHT22;17763;48.730;9.136;2024-02-21T15:28:36;13.00;65.80
31113;DHT22;17763;48.730;9.136;2024-02-21T15:31:04;13.00;66.60
31113;DHT22;17763;48.730;9.136;2024-02-21T15:33:29;13.00;67.10
31113;DHT22;17763;48.730;9.136;2024-02-21T15:35:57;13.00;67.30
31113;DHT22;17763;48.730;9.136;2024-02-21T15:38:25;13.00;68.60
31113;DHT22;17763;48.730;9.136;2024-02-21T15:40:54;12.90;68.90
31113;DHT22;17763;48.730;9.136;2024-02-21T15:43:19;12.90;69.70